createdAt,value
2022-11-13T00:01:41.401Z,90.53
2022-11-13T00:04:26.743Z,91.68
2022-11-13T00:07:12.436Z,93.58
2022-11-13T00:09:58.119Z,90.74
2022-11-13T00:12:43.941Z,89.88
2022-11-13T00:15:29.652Z,90.32
2022-11-13T00:18:15.146Z,94.11
2022-11-13T00:21:06.637Z,94.11
2022-11-13T00:23:53.075Z,90.63
2022-11-13T00:26:39.849Z,88.91
2022-11-13T00:29:26.182Z,89.88
2022-11-13T00:32:12.296Z,93.01
2022-11-13T00:34:58.866Z,93.34
2022-11-13T00:37:44.577Z,92.75
2022-11-13T00:40:30.221Z,91.23
2022-11-13T00:43:15.648Z,91.66
2022-11-13T00:46:01.271Z,91.44
2022-11-13T00:48:46.618Z,91.84
2022-11-13T00:51:32.137Z,93.80
2022-11-13T00:54:17.714Z,94.29
2022-11-13T00:57:03.458Z,94.76
2022-11-13T00:59:48.755Z,93.11
2022-11-13T01:02:34.337Z,92.77
2022-11-13T01:05:20.157Z,92.27
2022-11-13T01:08:05.986Z,95.83
2022-11-13T01:10:53.700Z,93.88
2022-11-13T01:13:42.835Z,95.54
2022-11-13T01:16:28.980Z,95.05
2022-11-13T01:19:14.406Z,96.26
2022-11-13T01:22:00.017Z,96.16
2022-11-13T01:24:45.626Z,95.33
2022-11-13T01:27:31.125Z,95.20
2022-11-13T01:30:16.688Z,92.57
2022-11-13T01:33:01.890Z,91.58
2022-11-13T01:35:47.481Z,92.07
2022-11-13T01:38:36.425Z,92.33
2022-11-13T01:41:28.924Z,93.00
2022-11-13T01:44:17.625Z,97.65
2022-11-13T01:47:03.923Z,95.89
2022-11-13T01:49:51.995Z,95.18
2022-11-13T01:52:40.531Z,98.36
2022-11-13T01:55:26.543Z,95.63
2022-11-13T01:58:13.303Z,97.10
2022-11-13T02:00:58.789Z,97.08
2022-11-13T02:03:44.729Z,99.07
2022-11-13T02:06:37.119Z,98.91
2022-11-13T02:09:26.499Z,100.00
2022-11-13T02:12:16.071Z,100.00
2022-11-13T02:15:04.181Z,100.00
2022-11-13T02:17:54.762Z,100.00
2022-11-13T02:20:53.222Z,99.49
2022-11-13T02:24:07.587Z,97.60
2022-11-13T02:26:56.682Z,99.17
2022-11-13T02:29:42.189Z,100.00
2022-11-13T02:32:27.241Z,100.00
2022-11-13T02:35:15.253Z,100.00
2022-11-13T02:38:03.399Z,99.13
2022-11-13T02:40:49.085Z,97.31
2022-11-13T02:43:34.645Z,97.28
2022-11-13T02:46:19.704Z,97.89
2022-11-13T02:49:05.511Z,99.65
2022-11-13T02:51:50.846Z,97.83
2022-11-13T02:54:36.497Z,100.00
2022-11-13T02:57:22.170Z,100.00
2022-11-13T03:00:13.595Z,98.76
2022-11-13T03:02:59.706Z,98.44
2022-11-13T03:05:50.004Z,100.00
2022-11-13T03:08:36.482Z,100.00
2022-11-13T03:11:22.463Z,98.46
2022-11-13T03:14:08.264Z,97.80
2022-11-13T03:16:53.880Z,97.75
2022-11-13T03:19:39.428Z,98.86
2022-11-13T03:22:25.324Z,100.00
2022-11-13T03:25:11.197Z,100.00
2022-11-13T03:27:56.548Z,100.00
2022-11-13T03:30:41.802Z,100.00
2022-11-13T03:33:27.648Z,100.00
2022-11-13T03:36:13.083Z,100.00
2022-11-13T03:38:59.056Z,99.73
2022-11-13T03:41:44.535Z,99.03
2022-11-13T03:44:29.624Z,98.05
2022-11-13T03:47:15.564Z,97.69
2022-11-13T03:50:00.951Z,97.07
2022-11-13T03:52:46.352Z,95.69
2022-11-13T03:55:31.919Z,94.82
2022-11-13T03:58:17.283Z,96.38
2022-11-13T04:01:02.939Z,97.21
2022-11-13T04:03:48.354Z,97.57
2022-11-13T04:06:33.538Z,96.90
2022-11-13T04:09:19.157Z,97.80
2022-11-13T04:12:04.335Z,97.19
2022-11-13T04:14:50.068Z,94.08
2022-11-13T04:17:35.526Z,96.49
2022-11-13T04:20:20.648Z,96.40
2022-11-13T04:23:09.731Z,97.80
2022-11-13T04:25:55.245Z,96.96
2022-11-13T04:28:43.531Z,95.98
2022-11-13T04:31:28.938Z,95.09
2022-11-13T04:34:14.290Z,94.72
2022-11-13T04:36:59.899Z,95.26
2022-11-13T04:39:45.511Z,95.30
2022-11-13T04:42:48.990Z,94.68
2022-11-13T04:45:34.598Z,94.19
2022-11-13T04:48:19.746Z,93.48
2022-11-13T04:51:05.933Z,93.48
2022-11-13T04:53:51.649Z,91.90
2022-11-13T04:56:37.441Z,91.09
2022-11-13T04:59:22.593Z,92.26
2022-11-13T05:02:08.250Z,93.73
2022-11-13T05:04:53.945Z,93.67
2022-11-13T05:07:39.544Z,94.66
2022-11-13T05:10:24.684Z,94.62
2022-11-13T05:13:10.172Z,95.17
2022-11-13T05:16:09.969Z,94.35
2022-11-13T05:18:58.261Z,93.46
2022-11-13T05:21:44.110Z,93.95
2022-11-13T05:24:29.660Z,93.76
2022-11-13T05:27:17.497Z,93.32
2022-11-13T05:30:04.681Z,91.59
2022-11-13T05:32:51.677Z,93.02
2022-11-13T05:35:37.982Z,94.60
2022-11-13T05:38:24.059Z,93.48
2022-11-13T05:41:12.909Z,94.34
2022-11-13T05:43:59.726Z,94.43
2022-11-13T05:46:46.140Z,93.23
2022-11-13T05:49:31.879Z,94.01
2022-11-13T05:52:17.927Z,94.75
2022-11-13T05:55:04.804Z,93.97
2022-11-13T05:57:51.304Z,94.12
2022-11-13T06:00:37.821Z,93.67
2022-11-13T06:03:24.181Z,93.45
2022-11-13T06:06:15.450Z,92.97
2022-11-13T06:09:05.183Z,92.92
2022-11-13T06:11:51.238Z,93.05
2022-11-13T06:14:38.833Z,93.01
2022-11-13T06:17:24.175Z,93.11
2022-11-13T06:20:10.689Z,94.39
2022-11-13T06:22:57.928Z,94.63
2022-11-13T06:25:43.631Z,93.43
2022-11-13T06:28:29.789Z,93.23
2022-11-13T06:31:22.086Z,93.32
2022-11-13T06:34:07.882Z,94.21
2022-11-13T06:36:53.969Z,93.56
2022-11-13T06:39:42.626Z,92.50
2022-11-13T06:42:28.812Z,93.56
2022-11-13T06:45:14.814Z,92.83
2022-11-13T06:48:00.571Z,93.65
2022-11-13T06:50:48.574Z,94.54
2022-11-13T06:53:34.584Z,96.18
2022-11-13T06:56:20.760Z,95.82
2022-11-13T06:59:08.433Z,95.24
2022-11-13T07:01:54.129Z,94.04
2022-11-13T07:04:39.421Z,93.59
2022-11-13T07:07:25.173Z,93.47
2022-11-13T07:10:10.962Z,92.23
2022-11-13T07:13:00.310Z,91.80
2022-11-13T07:15:45.754Z,91.33
2022-11-13T07:18:31.791Z,91.88
2022-11-13T07:21:17.347Z,91.66
2022-11-13T07:24:03.371Z,91.38
2022-11-13T07:26:49.309Z,90.43
2022-11-13T07:29:36.883Z,90.32
2022-11-13T07:32:22.793Z,89.95
2022-11-13T07:35:09.937Z,89.14
2022-11-13T07:37:58.840Z,89.74
2022-11-13T07:40:45.088Z,90.91
2022-11-13T07:43:31.256Z,92.40
2022-11-13T07:46:18.873Z,93.64
2022-11-13T07:49:04.557Z,94.89
2022-11-13T07:51:50.744Z,94.24
2022-11-13T07:54:37.020Z,91.58
2022-11-13T07:57:23.099Z,90.56
2022-11-13T08:00:09.119Z,91.11
2022-11-13T08:02:56.057Z,90.65
2022-11-13T08:05:43.029Z,90.00
2022-11-13T08:08:32.529Z,89.68
2022-11-13T08:11:18.205Z,88.77
2022-11-13T08:14:04.365Z,89.55
2022-11-13T08:16:50.220Z,88.48
2022-11-13T08:19:36.494Z,87.43
2022-11-13T08:22:22.204Z,86.91
2022-11-13T08:25:08.768Z,85.83
2022-11-13T08:27:55.825Z,85.83
2022-11-13T08:30:44.698Z,85.60
2022-11-13T08:33:31.422Z,85.43
2022-11-13T08:36:16.956Z,84.87
2022-11-13T08:39:02.718Z,85.06
2022-11-13T08:41:49.936Z,84.50
2022-11-13T08:44:35.865Z,84.45
2022-11-13T08:47:26.886Z,83.91
2022-11-13T08:50:15.111Z,83.11
2022-11-13T08:53:01.866Z,82.03
2022-11-13T08:55:47.602Z,82.07
2022-11-13T08:58:33.566Z,82.17
2022-11-13T09:01:22.893Z,80.64
2022-11-13T09:04:08.945Z,79.87
2022-11-13T09:06:55.533Z,79.16
2022-11-13T09:09:42.231Z,77.94
2022-11-13T09:12:28.726Z,79.10
2022-11-13T09:15:14.710Z,79.15
2022-11-13T09:18:03.135Z,79.98
2022-11-13T09:20:48.917Z,78.73
2022-11-13T09:23:35.968Z,78.36
2022-11-13T09:26:21.663Z,77.76
2022-11-13T09:29:08.227Z,76.36
2022-11-13T09:31:54.769Z,75.43
2022-11-13T09:34:40.779Z,76.35
2022-11-13T09:37:27.059Z,74.99
2022-11-13T09:40:21.979Z,73.24
2022-11-13T09:43:33.885Z,71.51
2022-11-13T09:46:22.445Z,70.76
2022-11-13T09:49:18.507Z,70.34
2022-11-13T09:52:13.039Z,69.75
2022-11-13T09:54:59.178Z,69.46
2022-11-13T09:57:54.326Z,69.98
2022-11-13T10:00:40.088Z,70.90
2022-11-13T10:03:54.135Z,72.01
2022-11-13T10:06:50.931Z,70.81
2022-11-13T10:10:16.969Z,69.31
2022-11-13T10:13:05.884Z,68.72
2022-11-13T10:15:56.272Z,67.59
2022-11-13T10:18:44.672Z,66.78
2022-11-13T10:21:37.443Z,66.77
2022-11-13T10:24:28.021Z,66.03
2022-11-13T10:27:16.098Z,66.46
2022-11-13T10:30:03.919Z,66.99
2022-11-13T10:32:50.440Z,66.33
2022-11-13T10:35:39.089Z,66.95
2022-11-13T10:38:59.415Z,66.24
2022-11-13T10:41:50.404Z,65.62
2022-11-13T10:44:36.697Z,64.57
2022-11-13T10:47:56.684Z,65.08
2022-11-13T10:50:31.816Z,66.12
2022-11-13T10:53:18.432Z,67.20
2022-11-13T10:56:13.825Z,65.21
2022-11-13T10:59:03.388Z,64.73
2022-11-13T11:01:50.242Z,66.21
2022-11-13T11:04:35.850Z,64.98
2022-11-13T11:07:23.475Z,64.48
2022-11-13T11:10:36.353Z,65.81
2022-11-13T11:13:24.519Z,65.25
2022-11-13T11:16:17.817Z,64.59
2022-11-13T11:19:10.443Z,65.33
2022-11-13T11:22:07.334Z,64.91
2022-11-13T11:25:02.524Z,65.80
2022-11-13T11:28:15.478Z,64.75
2022-11-13T11:31:27.335Z,64.62
2022-11-13T11:34:39.237Z,64.80
2022-11-13T11:37:31.492Z,64.82
2022-11-13T11:40:27.295Z,65.00
2022-11-13T11:43:37.934Z,63.89
2022-11-13T11:46:24.810Z,64.09
2022-11-13T11:49:11.382Z,63.96
2022-11-13T11:52:15.716Z,64.55
2022-11-13T11:55:28.292Z,63.33
2022-11-13T11:58:31.326Z,64.01
2022-11-13T12:01:43.589Z,62.94
2022-11-13T12:04:48.051Z,64.19
2022-11-13T12:07:57.525Z,63.62
2022-11-13T12:10:44.032Z,64.65
2022-11-13T12:13:32.260Z,64.80
2022-11-13T12:16:43.450Z,63.98
2022-11-13T12:19:43.976Z,64.43
2022-11-13T12:22:36.894Z,63.97
2022-11-13T12:25:28.569Z,63.91
2022-11-13T12:28:27.894Z,64.10
2022-11-13T12:31:13.779Z,64.53
2022-11-13T12:34:11.669Z,65.07
2022-11-13T12:36:59.125Z,64.80
2022-11-13T12:39:56.301Z,64.11
2022-11-13T12:42:51.245Z,63.77
2022-11-13T12:45:39.577Z,63.37
2022-11-13T12:48:40.784Z,64.98
2022-11-13T12:51:37.503Z,65.07
2022-11-13T12:54:27.069Z,64.25
2022-11-13T12:57:12.902Z,64.77
2022-11-13T13:00:10.699Z,64.82
2022-11-13T13:03:26.573Z,64.71
2022-11-13T13:06:51.565Z,65.01
2022-11-13T13:10:11.539Z,64.92
2022-11-13T13:13:10.989Z,65.67
2022-11-13T13:15:59.926Z,65.66
2022-11-13T13:18:45.996Z,65.76
2022-11-13T13:21:42.300Z,66.49
2022-11-13T13:24:35.691Z,65.81
2022-11-13T13:27:24.419Z,65.40
2022-11-13T13:30:22.812Z,64.54
2022-11-13T13:33:21.609Z,63.90
2022-11-13T13:36:26.167Z,63.67
2022-11-13T13:39:45.841Z,60.72
2022-11-13T13:43:09.461Z,58.67
2022-11-13T13:45:55.474Z,57.62
2022-11-13T13:48:43.113Z,57.21
2022-11-13T13:51:30.364Z,57.08
2022-11-13T13:54:19.245Z,54.30
2022-11-13T13:57:05.105Z,56.46
2022-11-13T13:59:51.693Z,57.00
2022-11-13T14:02:46.386Z,55.36
2022-11-13T14:05:35.393Z,56.31
2022-11-13T14:08:25.347Z,55.77
2022-11-13T14:11:30.080Z,55.21
2022-11-13T14:14:21.834Z,55.56
2022-11-13T14:17:10.970Z,56.37
2022-11-13T14:20:01.216Z,56.97
2022-11-13T14:22:55.282Z,57.05
2022-11-13T14:25:43.370Z,58.16
2022-11-13T14:28:32.564Z,57.97
2022-11-13T14:31:18.216Z,58.64
2022-11-13T14:34:11.591Z,58.59
2022-11-13T14:37:13.029Z,58.93
2022-11-13T14:40:02.211Z,58.92
2022-11-13T14:42:58.709Z,59.12
2022-11-13T14:45:53.926Z,59.00
2022-11-13T14:48:39.914Z,59.35
2022-11-13T14:51:28.864Z,59.43
2022-11-13T14:55:08.090Z,59.31
2022-11-13T14:57:49.551Z,59.79
2022-11-13T15:00:37.565Z,60.36
2022-11-13T15:03:24.438Z,60.66
2022-11-13T15:06:20.671Z,60.74
2022-11-13T15:09:15.491Z,60.46
2022-11-13T15:12:01.761Z,60.82
2022-11-13T15:14:47.892Z,60.96
2022-11-13T15:17:33.903Z,61.41
2022-11-13T15:20:24.859Z,61.10
2022-11-13T15:23:15.848Z,61.56
2022-11-13T15:26:01.453Z,61.93
2022-11-13T15:28:48.367Z,62.07
2022-11-13T15:31:37.331Z,62.61
2022-11-13T15:34:23.799Z,63.50
2022-11-13T15:37:12.953Z,64.01
2022-11-13T15:39:59.332Z,64.08
2022-11-13T15:42:45.858Z,64.40
2022-11-13T15:45:31.565Z,64.53
2022-11-13T15:48:16.995Z,64.66
2022-11-13T15:51:03.551Z,65.16
2022-11-13T15:53:59.798Z,65.66
2022-11-13T15:56:47.236Z,65.51
2022-11-13T15:59:33.575Z,66.23
2022-11-13T16:02:19.554Z,66.65
2022-11-13T16:05:06.197Z,66.45
2022-11-13T16:07:53.260Z,67.07
2022-11-13T16:10:39.197Z,67.31
2022-11-13T16:13:24.650Z,66.94
2022-11-13T16:16:20.234Z,67.78
2022-11-13T16:19:15.261Z,68.04
2022-11-13T16:22:01.907Z,68.17
2022-11-13T16:24:48.327Z,68.65
2022-11-13T16:27:34.811Z,68.74
2022-11-13T16:30:23.470Z,69.00
2022-11-13T16:33:10.391Z,69.18
2022-11-13T16:35:55.846Z,69.51
2022-11-13T16:38:42.276Z,69.36
2022-11-13T16:41:28.145Z,70.26
2022-11-13T16:44:13.971Z,70.01
2022-11-13T16:46:59.874Z,70.27
2022-11-13T16:49:45.848Z,70.26
2022-11-13T16:52:33.323Z,71.03
2022-11-13T16:55:20.678Z,70.75
2022-11-13T16:58:06.693Z,70.73
2022-11-13T17:00:56.152Z,70.58
2022-11-13T17:03:46.268Z,71.43
2022-11-13T17:06:34.544Z,72.20
2022-11-13T17:09:21.006Z,73.21
2022-11-13T17:12:06.903Z,72.35
2022-11-13T17:14:52.636Z,72.43
2022-11-13T17:17:38.361Z,72.90
2022-11-13T17:20:24.628Z,73.25
2022-11-13T17:23:16.363Z,72.85
2022-11-13T17:26:03.371Z,73.18
2022-11-13T17:28:51.957Z,73.52
2022-11-13T17:31:37.847Z,73.74
2022-11-13T17:34:23.069Z,74.45
2022-11-13T17:37:09.635Z,74.29
2022-11-13T17:39:54.883Z,74.10
2022-11-13T17:42:41.865Z,75.07
2022-11-13T17:45:26.884Z,75.86
2022-11-13T17:48:13.128Z,75.45
2022-11-13T17:51:01.807Z,76.91
2022-11-13T17:53:47.849Z,77.57
2022-11-13T17:56:35.414Z,78.40
2022-11-13T17:59:21.074Z,78.31
2022-11-13T18:02:08.397Z,78.50
2022-11-13T18:04:56.852Z,79.15
2022-11-13T18:07:42.561Z,79.49
2022-11-13T18:10:28.133Z,79.49
2022-11-13T18:13:13.953Z,79.44
2022-11-13T18:16:05.579Z,79.61
2022-11-13T18:18:55.475Z,79.62
2022-11-13T18:21:41.975Z,79.95
2022-11-13T18:24:28.232Z,79.48
2022-11-13T18:27:15.891Z,80.46
2022-11-13T18:30:01.820Z,79.74
2022-11-13T18:32:47.881Z,79.80
2022-11-13T18:35:33.320Z,79.41
2022-11-13T18:38:19.362Z,79.71
2022-11-13T18:41:08.555Z,79.31
2022-11-13T18:43:54.583Z,79.29
2022-11-13T18:46:40.435Z,79.90
2022-11-13T18:49:26.615Z,79.71
2022-11-13T18:52:12.552Z,79.79
2022-11-13T18:54:58.163Z,80.10
2022-11-13T18:57:43.893Z,79.94
2022-11-13T19:00:29.485Z,80.01
2022-11-13T19:03:15.048Z,80.44
2022-11-13T19:06:01.049Z,81.06
2022-11-13T19:08:47.676Z,81.31
2022-11-13T19:11:34.643Z,81.88
2022-11-13T19:14:20.168Z,82.07
2022-11-13T19:17:06.207Z,81.76
2022-11-13T19:19:51.902Z,82.72
2022-11-13T19:22:38.005Z,82.51
2022-11-13T19:25:23.849Z,82.87
2022-11-13T19:28:10.129Z,82.84
2022-11-13T19:30:55.997Z,83.40
2022-11-13T19:33:42.523Z,83.70
2022-11-13T19:36:30.342Z,84.96
2022-11-13T19:39:17.941Z,86.70
2022-11-13T19:42:03.899Z,88.41
2022-11-13T19:44:50.121Z,87.58
2022-11-13T19:47:35.565Z,86.27
2022-11-13T19:50:21.503Z,86.48
2022-11-13T19:53:07.011Z,85.89
2022-11-13T19:55:56.263Z,85.85
2022-11-13T19:58:44.499Z,85.71
2022-11-13T20:01:32.442Z,85.56
2022-11-13T20:04:18.370Z,86.08
2022-11-13T20:07:04.373Z,85.39
2022-11-13T20:09:50.306Z,85.62
2022-11-13T20:12:36.434Z,85.60
2022-11-13T20:15:22.665Z,86.07
2022-11-13T20:18:08.861Z,85.82
2022-11-13T20:20:55.201Z,85.96
2022-11-13T20:23:41.891Z,86.14
2022-11-13T20:26:28.636Z,86.22
2022-11-13T20:29:14.465Z,85.89
2022-11-13T20:32:00.662Z,86.49
2022-11-13T20:34:46.730Z,85.92
2022-11-13T20:37:32.520Z,85.99
2022-11-13T20:40:18.823Z,86.23
2022-11-13T20:43:04.359Z,86.54
2022-11-13T20:45:51.431Z,88.21
2022-11-13T20:48:39.227Z,90.76
2022-11-13T20:51:27.269Z,93.11
2022-11-13T20:54:14.300Z,92.89
2022-11-13T20:57:01.875Z,93.21
2022-11-13T20:59:48.399Z,94.23
2022-11-13T21:02:35.218Z,95.49
2022-11-13T21:05:22.143Z,94.07
2022-11-13T21:08:12.428Z,95.20
2022-11-13T21:11:08.470Z,94.89
2022-11-13T21:13:55.930Z,96.32
2022-11-13T21:16:41.354Z,95.44
2022-11-13T21:19:27.226Z,95.42
2022-11-13T21:22:13.266Z,96.47
2022-11-13T21:24:59.261Z,95.62
2022-11-13T21:27:45.596Z,95.91
2022-11-13T21:30:32.056Z,95.92
2022-11-13T21:33:17.684Z,94.61
2022-11-13T21:36:11.368Z,96.48
2022-11-13T21:38:57.528Z,95.91
2022-11-13T21:41:43.432Z,95.94
2022-11-13T21:44:29.307Z,97.35
2022-11-13T21:47:15.698Z,97.42
2022-11-13T21:50:01.983Z,95.17
2022-11-13T21:52:47.675Z,95.29
2022-11-13T21:55:33.450Z,94.77
2022-11-13T21:58:19.001Z,95.13
2022-11-13T22:01:05.203Z,94.01
2022-11-13T22:03:51.223Z,94.03
2022-11-13T22:06:36.806Z,93.50
2022-11-13T22:09:24.574Z,93.90
2022-11-13T22:12:10.669Z,93.47
2022-11-13T22:14:56.175Z,93.71
2022-11-13T22:17:44.247Z,94.47
2022-11-13T22:20:29.881Z,94.27
2022-11-13T22:23:18.424Z,93.20
2022-11-13T22:26:15.537Z,93.00
2022-11-13T22:29:00.834Z,93.41
2022-11-13T22:31:46.836Z,92.41
2022-11-13T22:34:32.096Z,92.74
2022-11-13T22:37:18.227Z,92.40
2022-11-13T22:40:04.021Z,92.28
2022-11-13T22:42:49.345Z,93.99
2022-11-13T22:45:34.452Z,95.11
2022-11-13T22:48:20.069Z,94.89
2022-11-13T22:51:09.930Z,94.07
2022-11-13T22:54:01.293Z,95.21
2022-11-13T22:56:48.933Z,96.53
2022-11-13T22:59:35.296Z,96.57
2022-11-13T23:02:21.143Z,97.07
2022-11-13T23:05:08.442Z,97.44
2022-11-13T23:07:54.242Z,98.15
2022-11-13T23:10:40.350Z,99.50
2022-11-13T23:13:26.240Z,99.42
2022-11-13T23:16:12.085Z,99.47
2022-11-13T23:18:59.214Z,98.97
2022-11-13T23:21:46.484Z,99.32
2022-11-13T23:24:31.975Z,99.41
2022-11-13T23:27:17.520Z,99.50
2022-11-13T23:30:02.770Z,100.00
2022-11-13T23:32:47.827Z,100.00
2022-11-13T23:35:33.070Z,100.00
2022-11-13T23:38:18.790Z,99.96
2022-11-13T23:41:05.158Z,100.00
2022-11-13T23:46:56.268Z,99.83
2022-11-13T23:49:42.908Z,100.00
2022-11-13T23:52:28.751Z,100.00
2022-11-13T23:55:14.841Z,100.00
2022-11-13T23:58:02.687Z,100.00
